MSC Orchestra — 3EJF3 — position and weather

sailwx.info

Track history (hours):
 
Tides and Currents Weather Stations Pressure Air Temp Water Temp Dewpoint Dewpoint Depression Visibility Wind Speed Wind Dir Waves Ship Positions

MSC Orchestra

Last reported at 2014-Nov-29 23:20 UTC. Time now 2014-Dec-21 20:04 UTC.
Position N 36°01' E 026°55'.
Warning: this ship's position is 21 days out of date.

Length 292 m; draft 7.6 m.

Type: Ship. MMSI: 372497000.

Date/timePositionNaut miles runAvg speedWind from/ knotsBaromVisibWave heightAir tempDewpointWater temp
2014-Nov-29 23:20N 36°01' E 026°55'1012.8
2014-Nov-29 22:33N 35°56' E 026°45'1312.7
2014-Nov-29 21:34N 35°49' E 026°32'1312.5
2014-Nov-29 20:33N 35°44' E 026°18'1313.1
2014-Nov-29 19:34N 35°39' E 026°03'1313.3
2014-Nov-29 18:33N 35°34' E 025°47'1313.0
2014-Nov-29 17:34N 35°30' E 025°33'1413.5
2014-Nov-29 16:33N 35°25' E 025°17'8 6.1
2014-Nov-29 15:19N 35°21' E 025°09'0 0.0
2014-Nov-29 14:30N 35°21' E 025°09'0 0.0
2014-Nov-29 13:27N 35°21' E 025°09'0 0.0
2014-Nov-29 12:32N 35°21' E 025°09'0 0.0
2014-Nov-29 11:32N 35°21' E 025°09'0 0.0
2014-Nov-29 09:26N 35°21' E 025°09'0 0.0
2014-Nov-29 08:32N 35°21' E 025°09'0 0.0
2014-Nov-29 07:29N 35°21' E 025°09'0 0.0
2014-Nov-29 06:12N 35°21' E 025°09'8 4.8
2014-Nov-29 04:33N 35°28' E 025°05'1511.8
2014-Nov-29 03:15N 35°41' E 024°55'812.0
2014-Nov-29 02:33N 35°48' E 024°50'1312.6
2014-Nov-29 01:33N 35°59' E 024°42'1312.5
2014-Nov-29 00:33N 36°09' E 024°33'1312.8
2014-Nov-28 23:33N 36°20' E 024°25'1313.0
2014-Nov-28 22:33N 36°31' E 024°16'1313.0
2014-Nov-28 21:33N 36°43' E 024°10'1313.4
2014-Nov-28 20:33N 36°56' E 024°03'1313.6
2014-Nov-28 19:33N 37°08' E 023°57'2214.8
2014-Nov-28 18:05N 37°29' E 023°48'917.8
2014-Nov-28 17:34N 37°37' E 023°43'1717.0
2014-Nov-28 16:34N 37°54' E 023°37'3 2.9
2014-Nov-28 15:33N 37°56' E 023°38'0 0.0
2014-Nov-28 14:33N 37°56' E 023°38'0 0.0
2014-Nov-28 13:32N 37°56' E 023°38'0 0.0
2014-Nov-28 12:32N 37°56' E 023°38'0 0.0
2014-Nov-28 11:31N 37°56' E 023°38'0 0.0
2014-Nov-28 10:28N 37°56' E 023°38'0 0.1
2014-Nov-28 09:33N 37°56' E 023°38'0 0.0
2014-Nov-28 08:33N 37°56' E 023°38'0 0.1
2014-Nov-28 07:31N 37°56' E 023°38'0 0.0
2014-Nov-28 06:33N 37°56' E 023°38'2 2.2
2014-Nov-28 05:33N 37°55' E 023°37'1010.2
2014-Nov-28 04:33N 37°45' E 023°42'1111.0
2014-Nov-28 03:33N 37°35' E 023°46'  
Track history (hours):
 
Tides and Currents Weather Stations Pressure Air Temp Water Temp Dewpoint Dewpoint Depression Visibility Wind Speed Wind Dir Waves Ship Positions

MSC Orchestra

Last reported at 2014-Nov-29 23:20 UTC. Time now 2014-Dec-21 20:04 UTC.
Position N 36°01' E 026°55'.
Warning: this ship's position is 21 days out of date.

Length 292 m; draft 7.6 m.

Type: Ship. MMSI: 372497000.

Date/timePositionNaut miles runAvg speedWind from/ knotsBaromVisibWave heightAir tempDewpointWater temp
2014-Nov-29 23:20N 36°01' E 026°55'1012.8
2014-Nov-29 22:33N 35°56' E 026°45'1312.7
2014-Nov-29 21:34N 35°49' E 026°32'1312.5
2014-Nov-29 20:33N 35°44' E 026°18'1313.1
2014-Nov-29 19:34N 35°39' E 026°03'1313.3
2014-Nov-29 18:33N 35°34' E 025°47'1313.0
2014-Nov-29 17:34N 35°30' E 025°33'1413.5
2014-Nov-29 16:33N 35°25' E 025°17'8 6.1
2014-Nov-29 15:19N 35°21' E 025°09'0 0.0
2014-Nov-29 14:30N 35°21' E 025°09'0 0.0
2014-Nov-29 13:27N 35°21' E 025°09'0 0.0
2014-Nov-29 12:32N 35°21' E 025°09'0 0.0
2014-Nov-29 11:32N 35°21' E 025°09'0 0.0
2014-Nov-29 09:26N 35°21' E 025°09'0 0.0
2014-Nov-29 08:32N 35°21' E 025°09'0 0.0
2014-Nov-29 07:29N 35°21' E 025°09'0 0.0
2014-Nov-29 06:12N 35°21' E 025°09'8 4.8
2014-Nov-29 04:33N 35°28' E 025°05'1511.8
2014-Nov-29 03:15N 35°41' E 024°55'812.0
2014-Nov-29 02:33N 35°48' E 024°50'1312.6
2014-Nov-29 01:33N 35°59' E 024°42'1312.5
2014-Nov-29 00:33N 36°09' E 024°33'1312.8
2014-Nov-28 23:33N 36°20' E 024°25'1313.0
2014-Nov-28 22:33N 36°31' E 024°16'1313.0
2014-Nov-28 21:33N 36°43' E 024°10'1313.4
2014-Nov-28 20:33N 36°56' E 024°03'1313.6
2014-Nov-28 19:33N 37°08' E 023°57'2214.8
2014-Nov-28 18:05N 37°29' E 023°48'917.8
2014-Nov-28 17:34N 37°37' E 023°43'1717.0
2014-Nov-28 16:34N 37°54' E 023°37'3 2.9
2014-Nov-28 15:33N 37°56' E 023°38'0 0.0
2014-Nov-28 14:33N 37°56' E 023°38'0 0.0
2014-Nov-28 13:32N 37°56' E 023°38'0 0.0
2014-Nov-28 12:32N 37°56' E 023°38'0 0.0
2014-Nov-28 11:31N 37°56' E 023°38'0 0.0
2014-Nov-28 10:28N 37°56' E 023°38'0 0.1
2014-Nov-28 09:33N 37°56' E 023°38'0 0.0
2014-Nov-28 08:33N 37°56' E 023°38'0 0.1
2014-Nov-28 07:31N 37°56' E 023°38'0 0.0
2014-Nov-28 06:33N 37°56' E 023°38'2 2.2
2014-Nov-28 05:33N 37°55' E 023°37'1010.2
2014-Nov-28 04:33N 37°45' E 023°42'1111.0
2014-Nov-28 03:33N 37°35' E 023°46'  

Dump ship's entire track history